Time;durP1;ratioP1;P1;durP2;ratioP2;P2;SDS_P1;SDS_P2;PMS_P1;PMS_P2;Temp;Humidity;BMP_temperature;BMP_pressure;BME280_temperature;BME280_humidity;BME280_pressure;Samples;Min_cycle;Max_cycle;Signal;HPM_P1;HPM_P2
2023/09/02 13:24:14;;;;;;;1.55;1.45;;;23.00;99.90;;;;;;6082555;23;21050;-86
2023/09/02 13:26:43;;;;;;;3.45;1.50;;;22.70;99.90;;;;;;4989339;28;20394;-85
2023/09/02 13:29:09;;;;;;;1.60;1.50;;;22.60;99.90;;;;;;5005330;28;20038;-88
2023/09/02 13:31:35;;;;;;;2.70;1.60;;;22.80;99.90;;;;;;5012877;28;20085;-85
2023/09/02 13:34:03;;;;;;;2.33;1.70;;;22.90;99.90;;;;;;5011548;28;20033;-86
2023/09/02 13:36:28;;;;;;;2.05;1.55;;;22.80;99.90;;;;;;5012471;28;20080;-86
2023/09/02 13:38:56;;;;;;;1.77;1.40;;;22.80;99.90;;;;;;5006354;28;20033;-85
2023/09/02 13:41:21;;;;;;;1.75;1.65;;;22.90;99.90;;;;;;4985079;28;20030;-87
2023/09/02 13:43:47;;;;;;;2.63;1.75;;;22.80;99.90;;;;;;4981211;28;20030;-86
2023/09/02 13:46:14;;;;;;;2.05;1.80;;;22.80;99.90;;;;;;4985790;28;20433;-86
2023/09/02 13:48:40;;;;;;;1.70;1.60;;;22.90;99.90;;;;;;4991359;28;20433;-85
2023/09/02 13:51:07;;;;;;;1.60;1.50;;;23.10;99.90;;;;;;4990895;28;20026;-88
2023/09/02 13:53:33;;;;;;;4.77;1.70;;;23.10;99.90;;;;;;4992495;28;20117;-85
2023/09/02 13:56:00;;;;;;;2.78;1.70;;;23.00;99.90;;;;;;4991955;28;20026;-87
2023/09/02 13:58:33;;;;;;;1.98;1.80;;;23.20;99.90;;;;;;4975261;28;20031;-88
2023/09/02 14:00:59;;;;;;;2.67;1.83;;;23.20;99.90;;;;;;4980262;28;20110;-86
2023/09/02 14:03:26;;;;;;;3.10;1.60;;;23.20;99.90;;;;;;4991721;28;20038;-86
2023/09/02 14:05:53;;;;;;;1.60;1.50;;;23.50;99.90;;;;;;4990470;28;20023;-85
2023/09/02 14:08:32;;;;;;;1.70;1.60;;;23.50;99.90;;;;;;4988281;28;20413;-87
2023/09/02 14:10:58;;;;;;;1.63;1.50;;;23.60;99.90;;;;;;4991628;28;20040;-85
2023/09/02 14:13:24;;;;;;;1.60;1.50;;;23.70;99.90;;;;;;4991083;28;20241;-85
2023/09/02 14:15:49;;;;;;;1.73;1.63;;;23.60;99.90;;;;;;4991453;28;20037;-86
2023/09/02 14:18:15;;;;;;;1.60;1.50;;;23.40;99.90;;;;;;4991275;28;20038;-85
2023/09/02 14:20:41;;;;;;;3.63;1.58;;;23.50;99.90;;;;;;4989493;28;20030;-85
2023/09/02 14:23:06;;;;;;;2.22;1.77;;;23.60;99.90;;;;;;4990360;28;20066;-86
2023/09/02 14:25:33;;;;;;;1.67;1.58;;;23.60;99.90;;;;;;4991979;28;20062;-85
2023/09/02 14:27:59;;;;;;;1.73;1.63;;;23.40;99.90;;;;;;4991624;28;20092;-87
2023/09/02 14:30:24;;;;;;;3.05;1.70;;;23.40;99.90;;;;;;4991299;28;20694;-87
2023/09/02 14:32:50;;;;;;;1.73;1.60;;;23.60;99.90;;;;;;4990076;28;20129;-86
2023/09/02 14:35:16;;;;;;;1.80;1.70;;;23.70;99.90;;;;;;4991347;28;20050;-86
2023/09/02 14:37:41;;;;;;;1.83;1.60;;;23.60;99.90;;;;;;4990064;28;20080;-87
2023/09/02 14:40:07;;;;;;;2.72;1.60;;;23.80;99.90;;;;;;4990693;28;20027;-87
2023/09/02 14:42:33;;;;;;;3.25;1.60;;;23.50;99.90;;;;;;4991834;28;20494;-87
2023/09/02 14:45:02;;;;;;;2.00;1.83;;;23.50;99.90;;;;;;4991612;28;20109;-88
2023/09/02 14:47:28;;;;;;;4.85;1.65;;;23.30;99.90;;;;;;4991090;28;20433;-86
2023/09/02 14:49:54;;;;;;;1.42;1.40;;;23.50;99.90;;;;;;4993434;28;20062;-92
2023/09/02 14:52:20;;;;;;;1.80;1.70;;;23.50;99.90;;;;;;4991094;28;20030;-87
2023/09/02 14:54:47;;;;;;;1.83;1.70;;;23.50;99.90;;;;;;4989435;28;20053;-89
2023/09/02 14:57:16;;;;;;;3.40;1.90;;;23.40;99.90;;;;;;4989711;28;20050;-90
2023/09/02 14:59:51;;;;;;;1.80;1.70;;;23.30;99.90;;;;;;4974785;28;20027;-91
2023/09/02 15:02:27;;;;;;;1.92;1.80;;;23.40;99.90;;;;;;4993138;28;20034;-90
2023/09/02 15:04:53;;;;;;;4.72;1.88;;;23.70;99.90;;;;;;4994646;28;20417;-88
2023/09/02 15:07:18;;;;;;;2.63;1.67;;;23.80;99.90;;;;;;4988580;28;20030;-88
2023/09/02 15:09:46;;;;;;;3.58;1.70;;;23.80;99.90;;;;;;4990620;28;20027;-87
2023/09/02 15:12:14;;;;;;;2.55;1.77;;;23.90;99.90;;;;;;4990408;28;20073;-88
2023/09/02 15:14:44;;;;;;;1.83;1.70;;;24.10;99.90;;;;;;4990439;28;20038;-87
2023/09/02 15:17:10;;;;;;;4.15;1.70;;;24.20;99.90;;;;;;4989427;28;20026;-88
2023/09/02 15:19:35;;;;;;;6.72;1.85;;;24.20;99.90;;;;;;4991327;28;20026;-88
2023/09/02 15:22:02;;;;;;;2.50;1.90;;;24.30;99.90;;;;;;4990326;28;20028;-87
2023/09/02 15:24:31;;;;;;;2.35;1.70;;;24.20;99.90;;;;;;4989943;28;20680;-87
2023/09/02 15:26:58;;;;;;;2.05;1.80;;;24.00;99.90;;;;;;4988993;28;20018;-88
2023/09/02 15:29:24;;;;;;;3.38;1.70;;;24.00;99.90;;;;;;4968881;28;20042;-88
2023/09/02 15:31:51;;;;;;;2.00;1.80;;;23.70;99.90;;;;;;4970781;28;20045;-88
2023/09/02 15:34:17;;;;;;;1.80;1.70;;;23.70;99.90;;;;;;4969290;28;20537;-88
2023/09/02 15:36:43;;;;;;;4.95;1.80;;;23.80;99.90;;;;;;4974290;28;20026;-88
2023/09/02 15:39:10;;;;;;;2.63;1.65;;;23.90;99.90;;;;;;4970584;28;20114;-86
2023/09/02 15:41:39;;;;;;;3.63;2.00;;;23.80;99.90;;;;;;4971425;28;20552;-86
2023/09/02 15:44:05;;;;;;;2.00;1.75;;;23.80;99.90;;;;;;4971538;28;20038;-87
2023/09/02 15:46:30;;;;;;;2.55;2.10;;;23.70;99.90;;;;;;4970326;28;20035;-87
2023/09/02 15:49:00;;;;;;;2.30;2.10;;;23.70;99.90;;;;;;4980514;28;20049;-86
2023/09/02 15:51:26;;;;;;;2.33;2.13;;;23.50;99.90;;;;;;4973560;28;20050;-87
2023/09/02 15:53:51;;;;;;;2.47;2.10;;;23.50;99.90;;;;;;4984365;28;20460;-88
2023/09/02 15:56:17;;;;;;;2.70;2.35;;;23.60;99.90;;;;;;4983941;28;20026;-90
2023/09/02 15:58:44;;;;;;;2.30;2.10;;;23.50;99.90;;;;;;4980424;28;20034;-87
2023/09/02 16:01:10;;;;;;;2.78;2.45;;;23.30;99.90;;;;;;4988662;28;20034;-86
2023/09/02 16:03:35;;;;;;;3.22;2.40;;;23.30;99.90;;;;;;4983607;28;20029;-86
2023/09/02 16:06:01;;;;;;;3.10;2.80;;;23.60;99.90;;;;;;5009120;28;20030;-87
2023/09/02 16:08:27;;;;;;;5.47;2.42;;;23.60;99.90;;;;;;5008866;28;20033;-87
2023/09/02 16:10:52;;;;;;;6.50;2.40;;;23.80;99.90;;;;;;4989691;28;20037;-86
2023/09/02 16:13:20;;;;;;;2.92;2.50;;;23.60;99.90;;;;;;5004973;28;20038;-88
2023/09/02 16:15:45;;;;;;;2.75;2.13;;;23.70;99.90;;;;;;4996225;28;20038;-86
2023/09/02 16:18:11;;;;;;;4.28;2.40;;;23.90;99.90;;;;;;4969452;28;20052;-88
2023/09/02 16:20:36;;;;;;;2.70;2.50;;;23.90;99.90;;;;;;4970861;28;20027;-86
2023/09/02 16:23:02;;;;;;;4.53;2.47;;;23.90;99.90;;;;;;4978911;28;20057;-87
2023/09/02 16:25:28;;;;;;;2.85;2.00;;;23.80;99.90;;;;;;4983094;28;20058;-87
2023/09/02 16:27:53;;;;;;;2.60;2.30;;;23.60;99.90;;;;;;4971253;28;20027;-86
2023/09/02 16:30:19;;;;;;;2.38;2.17;;;23.70;99.90;;;;;;4976108;28;20061;-89
2023/09/02 16:32:45;;;;;;;4.95;2.33;;;23.60;99.90;;;;;;4972401;28;20054;-87
2023/09/02 16:35:14;;;;;;;6.15;2.50;;;23.60;99.90;;;;;;4970153;28;20039;-88
2023/09/02 16:37:40;;;;;;;3.08;2.67;;;23.60;99.90;;;;;;4970663;28;20494;-86
2023/09/02 16:40:09;;;;;;;2.55;2.35;;;23.60;99.90;;;;;;4971154;28;20058;-89
2023/09/02 16:42:39;;;;;;;3.13;2.35;;;23.70;99.90;;;;;;4973471;28;20462;-88
2023/09/02 16:45:06;;;;;;;6.47;2.80;;;23.60;99.90;;;;;;4975393;28;20035;-88
2023/09/02 16:47:46;;;;;;;4.43;2.65;;;23.50;99.90;;;;;;4972343;28;20490;-86
2023/09/02 16:50:16;;;;;;;3.00;2.60;;;23.80;99.90;;;;;;4973383;28;20027;-88
2023/09/02 16:52:48;;;;;;;3.83;2.60;;;23.90;99.90;;;;;;4972978;28;20031;-89
2023/09/02 16:55:17;;;;;;;5.00;2.70;;;24.10;99.90;;;;;;4985217;28;20061;-90
2023/09/02 16:57:49;;;;;;;3.35;2.70;;;24.20;99.90;;;;;;4985002;28;20034;-88
2023/09/02 17:00:17;;;;;;;2.70;2.30;;;24.40;99.90;;;;;;4996419;28;20081;-88
2023/09/02 17:02:52;;;;;;;3.72;2.25;;;24.40;99.90;;;;;;4995367;28;20026;-88
2023/09/02 17:05:25;;;;;;;2.63;2.42;;;24.70;99.90;;;;;;4997901;28;20025;-88
2023/09/02 17:07:52;;;;;;;2.63;2.40;;;24.70;99.90;;;;;;4999489;28;20420;-89
2023/09/02 17:10:24;;;;;;;3.13;2.70;;;24.80;99.90;;;;;;4994482;28;20046;-87
2023/09/02 17:12:51;;;;;;;2.67;2.05;;;24.80;99.90;;;;;;4990323;28;20034;-87
2023/09/02 17:15:18;;;;;;;2.80;2.35;;;24.80;99.90;;;;;;4984473;28;20018;-87
2023/09/02 17:17:52;;;;;;;2.13;1.92;;;24.80;99.90;;;;;;4973430;28;20549;-86
2023/09/02 17:20:23;;;;;;;4.65;2.45;;;25.20;99.90;;;;;;4987631;28;20050;-87
2023/09/02 17:22:49;;;;;;;2.53;2.00;;;25.00;99.90;;;;;;4991579;28;20022;-86
2023/09/02 17:25:14;;;;;;;2.33;2.05;;;24.90;99.90;;;;;;4992163;28;20088;-88
2023/09/02 17:27:45;;;;;;;2.10;2.00;;;24.80;99.90;;;;;;4982074;28;20423;-86
2023/09/02 17:30:11;;;;;;;6.30;2.10;;;24.70;99.90;;;;;;4987961;28;20049;-89
2023/09/02 17:32:37;;;;;;;2.28;1.80;;;24.90;99.90;;;;;;4992443;28;20105;-88
2023/09/02 17:35:03;;;;;;;3.28;2.03;;;25.20;99.90;;;;;;4992585;28;20085;-88
2023/09/02 17:37:33;;;;;;;2.58;1.95;;;25.10;99.90;;;;;;4992430;28;20049;-86
2023/09/02 17:39:58;;;;;;;1.63;1.50;;;24.80;99.90;;;;;;4990800;28;20026;-88
2023/09/02 17:42:24;;;;;;;3.13;1.60;;;24.80;99.90;;;;;;4991502;28;20497;-86
2023/09/02 17:44:50;;;;;;;1.85;1.30;;;24.80;99.90;;;;;;4992121;28;20034;-87
2023/09/02 17:47:15;;;;;;;1.73;1.35;;;24.60;99.90;;;;;;4991065;28;20027;-85
2023/09/02 17:49:41;;;;;;;2.70;1.50;;;24.50;99.90;;;;;;4990850;28;20494;-88
2023/09/02 17:52:07;;;;;;;1.75;1.42;;;24.30;99.90;;;;;;4975445;28;20035;-86
2023/09/02 17:54:33;;;;;;;1.65;1.50;;;24.40;99.90;;;;;;4971999;28;20031;-86
2023/09/02 17:56:58;;;;;;;2.25;1.52;;;24.20;99.90;;;;;;4972156;28;20115;-87
2023/09/02 17:59:24;;;;;;;1.88;1.55;;;24.00;99.90;;;;;;4970884;28;20113;-86
2023/09/02 18:01:50;;;;;;;1.67;1.58;;;23.80;99.90;;;;;;4981206;28;20042;-86
2023/09/02 18:04:15;;;;;;;2.85;1.58;;;23.90;99.90;;;;;;4988957;28;20516;-85
2023/09/02 18:06:41;;;;;;;2.08;1.40;;;23.80;99.90;;;;;;4984883;28;20034;-85
2023/09/02 18:09:07;;;;;;;2.03;1.30;;;23.70;99.90;;;;;;4998851;28;20038;-85
2023/09/02 18:11:33;;;;;;;2.78;1.65;;;23.80;99.90;;;;;;4989737;28;20072;-89
2023/09/02 18:13:58;;;;;;;2.78;1.48;;;23.50;99.90;;;;;;4987188;28;20053;-83
2023/09/02 18:16:27;;;;;;;2.05;1.35;;;23.50;99.90;;;;;;4983490;28;20073;-86
2023/09/02 18:18:53;;;;;;;3.75;1.30;;;23.20;99.90;;;;;;4972072;28;20147;-88
2023/09/02 18:21:19;;;;;;;1.92;1.45;;;23.20;99.90;;;;;;4971790;28;20074;-88
2023/09/02 18:23:46;;;;;;;2.13;1.40;;;23.20;99.90;;;;;;4989746;28;20506;-87
2023/09/02 18:26:13;;;;;;;2.63;1.50;;;23.20;99.90;;;;;;4989580;28;20112;-89
2023/09/02 18:28:39;;;;;;;4.25;2.05;;;23.20;99.90;;;;;;4974871;28;20325;-88
2023/09/02 18:31:05;;;;;;;3.05;1.60;;;23.10;99.90;;;;;;4972095;28;20031;-86
2023/09/02 18:33:31;;;;;;;2.80;1.50;;;23.00;99.90;;;;;;4973399;28;20031;-84
2023/09/02 18:35:56;;;;;;;2.72;1.73;;;22.90;99.90;;;;;;5009189;28;20041;-85
2023/09/02 18:38:22;;;;;;;2.15;1.35;;;22.90;99.90;;;;;;5009351;28;20096;-86
2023/09/02 18:40:47;;;;;;;3.38;1.60;;;22.90;99.90;;;;;;4971041;28;20067;-87
2023/09/02 18:43:13;;;;;;;2.05;1.58;;;22.60;99.90;;;;;;4971099;28;20054;-84
2023/09/02 18:45:39;;;;;;;2.17;1.50;;;22.70;99.90;;;;;;4976762;28;20043;-87
2023/09/02 18:48:05;;;;;;;3.35;1.70;;;22.70;99.90;;;;;;4974687;28;20542;-88
2023/09/02 18:50:31;;;;;;;1.90;1.80;;;22.70;99.90;;;;;;4974954;28;20045;-88
2023/09/02 18:52:57;;;;;;;1.85;1.50;;;22.60;99.90;;;;;;4989238;28;20034;-87
2023/09/02 18:55:24;;;;;;;1.50;1.40;;;22.50;99.90;;;;;;4990302;28;20385;-89
2023/09/02 18:57:50;;;;;;;1.90;1.63;;;22.50;99.90;;;;;;5010452;28;20026;-88
2023/09/02 19:00:15;;;;;;;1.90;1.67;;;22.50;99.90;;;;;;5001192;28;20037;-87
2023/09/02 19:02:41;;;;;;;2.17;1.83;;;22.50;99.90;;;;;;4972162;28;20035;-89
2023/09/02 19:05:07;;;;;;;2.78;1.80;;;22.50;99.90;;;;;;4970876;28;20043;-88
2023/09/02 19:07:32;;;;;;;3.40;1.80;;;22.40;99.90;;;;;;4974904;28;20019;-83
2023/09/02 19:09:58;;;;;;;2.00;1.60;;;22.40;99.90;;;;;;4995814;28;20090;-88
2023/09/02 19:12:24;;;;;;;1.80;1.70;;;22.40;99.90;;;;;;5010018;28;20026;-88
2023/09/02 19:14:49;;;;;;;3.92;2.00;;;22.30;99.90;;;;;;4995393;28;20401;-83
2023/09/02 19:17:15;;;;;;;2.95;2.13;;;22.20;99.90;;;;;;4990708;28;20030;-86
2023/09/02 19:19:43;;;;;;;3.88;1.70;;;22.20;99.90;;;;;;4990887;28;20105;-85
2023/09/02 19:22:08;;;;;;;3.67;1.88;;;22.10;99.90;;;;;;4982989;28;20625;-87
2023/09/02 19:24:34;;;;;;;2.30;1.95;;;22.20;99.90;;;;;;4985598;28;20109;-87
2023/09/02 19:27:00;;;;;;;3.40;2.15;;;22.10;99.90;;;;;;4983441;28;20364;-88
2023/09/02 19:29:25;;;;;;;3.00;1.73;;;22.10;99.90;;;;;;4989649;28;20045;-88
2023/09/02 19:31:51;;;;;;;2.30;1.65;;;21.90;99.90;;;;;;4986963;28;20038;-88
2023/09/02 19:34:17;;;;;;;2.35;1.85;;;21.90;99.90;;;;;;4971306;28;20031;-88
2023/09/02 19:36:42;;;;;;;2.35;1.95;;;21.80;99.90;;;;;;4989801;28;20077;-87
2023/09/02 19:39:19;;;;;;;2.20;1.80;;;21.80;99.90;;;;;;4987031;28;20026;-85
2023/09/02 19:41:45;;;;;;;2.08;1.88;;;21.70;99.90;;;;;;4985705;28;20027;-87
2023/09/02 19:44:14;;;;;;;3.65;2.10;;;21.70;99.90;;;;;;5008105;28;20044;-84
2023/09/02 19:46:41;;;;;;;2.92;2.13;;;21.60;99.90;;;;;;4995078;28;20054;-82
2023/09/02 19:49:07;;;;;;;2.60;1.92;;;21.50;99.90;;;;;;4990161;28;20057;-85
2023/09/02 19:51:32;;;;;;;1.80;1.65;;;21.60;99.90;;;;;;4970241;28;20466;-86
2023/09/02 19:53:58;;;;;;;3.63;1.95;;;21.60;99.90;;;;;;4970452;28;20034;-84
2023/09/02 19:56:23;;;;;;;2.33;2.10;;;21.60;99.90;;;;;;4979670;28;20097;-88
2023/09/02 19:58:51;;;;;;;2.55;2.10;;;21.50;99.90;;;;;;4988666;28;20122;-84
2023/09/02 20:01:17;;;;;;;3.22;1.90;;;21.50;99.90;;;;;;4987700;28;20069;-87
2023/09/02 20:03:43;;;;;;;3.33;2.22;;;21.40;99.90;;;;;;4989565;28;20050;-85
2023/09/02 20:06:15;;;;;;;3.80;2.08;;;21.40;99.90;;;;;;4988575;28;20040;-87
2023/09/02 20:08:40;;;;;;;5.13;2.22;;;21.40;99.90;;;;;;4972521;28;20117;-83
2023/09/02 20:11:06;;;;;;;3.63;2.20;;;21.40;99.90;;;;;;4971140;28;20073;-87
2023/09/02 20:13:35;;;;;;;5.63;2.40;;;21.30;99.90;;;;;;4981030;28;20050;-88
2023/09/02 20:16:04;;;;;;;3.40;2.40;;;21.40;99.90;;;;;;4980460;28;20577;-84
2023/09/02 20:18:33;;;;;;;5.25;2.40;;;21.30;99.90;;;;;;4980507;28;20337;-86
2023/09/02 20:20:59;;;;;;;5.25;2.22;;;21.30;99.90;;;;;;4989890;28;20477;-88
2023/09/02 20:23:25;;;;;;;4.20;2.30;;;21.20;99.90;;;;;;4975034;28;20542;-85
2023/09/02 20:25:50;;;;;;;5.03;2.42;;;21.10;99.90;;;;;;4970106;28;20043;-87
2023/09/02 20:28:17;;;;;;;3.20;2.40;;;21.00;99.90;;;;;;4983728;28;20038;-86
2023/09/02 20:30:42;;;;;;;9.48;3.00;;;21.00;99.90;;;;;;4988882;28;20035;-83
2023/09/02 20:33:08;;;;;;;5.00;2.33;;;21.00;99.90;;;;;;4990706;28;20604;-86
2023/09/02 20:35:39;;;;;;;4.40;2.80;;;20.90;99.90;;;;;;4988915;28;20042;-84
2023/09/02 20:38:05;;;;;;;4.88;2.35;;;21.00;99.90;;;;;;4987688;28;20406;-84
2023/09/02 20:40:38;;;;;;;5.03;2.70;;;20.90;99.90;;;;;;4984217;28;20034;-85
2023/09/02 20:43:13;;;;;;;5.75;2.55;;;20.90;99.90;;;;;;4980976;28;20023;-86
2023/09/02 20:45:40;;;;;;;4.65;2.50;;;20.90;99.90;;;;;;4988848;28;20023;-83
2023/09/02 20:48:06;;;;;;;4.63;2.65;;;21.00;99.90;;;;;;4988670;28;20113;-87
2023/09/02 20:50:32;;;;;;;4.72;2.75;;;20.80;99.90;;;;;;4988547;28;20621;-85
2023/09/02 20:52:58;;;;;;;6.50;3.03;;;20.80;99.90;;;;;;4987689;28;20027;-82
2023/09/02 20:55:24;;;;;;;6.93;3.30;;;20.60;99.90;;;;;;4988704;28;20101;-86
2023/09/02 20:57:49;;;;;;;5.25;2.97;;;20.70;99.90;;;;;;4988323;28;20038;-84
2023/09/02 21:00:15;;;;;;;4.53;3.05;;;20.60;99.90;;;;;;4988729;28;20080;-84
2023/09/02 21:02:41;;;;;;;10.57;3.55;;;20.50;99.90;;;;;;4978174;28;20414;-84
2023/09/02 21:05:06;;;;;;;9.93;3.85;;;20.60;99.90;;;;;;4970515;28;20105;-85
2023/09/02 21:07:33;;;;;;;6.60;3.58;;;20.60;99.90;;;;;;4989424;28;20466;-86
2023/09/02 21:09:58;;;;;;;8.95;3.33;;;20.50;99.90;;;;;;4987852;28;20046;-85
2023/09/02 21:12:24;;;;;;;10.88;3.78;;;20.40;99.90;;;;;;4987735;28;20026;-86
2023/09/02 21:14:52;;;;;;;7.88;3.33;;;20.40;99.90;;;;;;4988550;28;20450;-85
2023/09/02 21:17:18;;;;;;;6.57;3.45;;;20.40;99.90;;;;;;4987162;28;20089;-84
2023/09/02 21:19:44;;;;;;;8.63;3.63;;;20.40;99.90;;;;;;4981790;28;20031;-82
2023/09/02 21:22:10;;;;;;;6.30;3.20;;;20.40;99.90;;;;;;4984561;28;20030;-86
2023/09/02 21:24:35;;;;;;;9.65;3.47;;;20.40;99.90;;;;;;4986684;28;20026;-84
2023/09/02 21:27:01;;;;;;;7.05;3.83;;;20.40;99.90;;;;;;4969856;28;20378;-85
2023/09/02 21:29:28;;;;;;;8.52;4.07;;;20.20;99.90;;;;;;4972869;28;20039;-82
2023/09/02 21:31:53;;;;;;;9.93;3.90;;;20.10;99.90;;;;;;4973452;28;20102;-85
2023/09/02 21:34:19;;;;;;;6.45;3.20;;;20.10;99.90;;;;;;4981667;28;20533;-86
2023/09/02 21:36:45;;;;;;;10.45;3.63;;;20.20;99.90;;;;;;4990180;28;20022;-82
2023/09/02 21:39:10;;;;;;;6.63;3.63;;;20.00;99.90;;;;;;4974200;28;20526;-82
2023/09/02 21:41:36;;;;;;;6.82;3.50;;;20.10;99.90;;;;;;4973083;28;20027;-83
2023/09/02 21:44:02;;;;;;;6.57;3.55;;;20.10;99.90;;;;;;4977484;28;20030;-86
2023/09/02 21:46:28;;;;;;;7.22;3.70;;;19.90;99.90;;;;;;5006423;28;20515;-84
2023/09/02 21:48:54;;;;;;;8.90;3.95;;;19.90;99.90;;;;;;5006284;28;20042;-87
2023/09/02 21:51:20;;;;;;;5.93;3.50;;;19.80;99.90;;;;;;4984302;28;20438;-86
2023/09/02 21:53:46;;;;;;;9.43;4.28;;;19.80;99.90;;;;;;4973323;28;20035;-83
2023/09/02 21:56:12;;;;;;;7.65;3.90;;;19.70;99.90;;;;;;4981535;28;20061;-85
2023/09/02 21:58:39;;;;;;;5.72;3.40;;;19.60;99.90;;;;;;4989180;28;20425;-86
2023/09/02 22:01:07;;;;;;;6.85;4.03;;;19.60;99.90;;;;;;4975956;28;20114;-86
2023/09/02 22:03:34;;;;;;;6.72;3.97;;;19.50;99.90;;;;;;4992241;28;20026;-87
2023/09/02 22:06:03;;;;;;;9.68;4.22;;;19.60;99.90;;;;;;4991467;28;20023;-87
2023/09/02 22:08:29;;;;;;;8.98;4.22;;;19.60;99.90;;;;;;4991270;28;20088;-85
2023/09/02 22:10:56;;;;;;;9.30;4.20;;;19.50;99.90;;;;;;4991315;28;20030;-86
2023/09/02 22:13:22;;;;;;;11.88;4.70;;;19.40;99.90;;;;;;4986619;28;20145;-85
2023/09/02 22:15:47;;;;;;;11.68;4.38;;;19.50;99.90;;;;;;4989087;28;20022;-82
2023/09/02 22:18:13;;;;;;;11.65;4.20;;;19.50;99.90;;;;;;4990902;28;20405;-85
2023/09/02 22:20:38;;;;;;;9.60;4.30;;;19.50;99.90;;;;;;4990703;28;20068;-86
2023/09/02 22:23:04;;;;;;;9.52;4.43;;;19.50;99.90;;;;;;4991162;28;20022;-86
2023/09/02 22:25:30;;;;;;;8.45;4.10;;;19.40;99.90;;;;;;4982018;28;20076;-84
2023/09/02 22:27:55;;;;;;;12.38;5.32;;;19.40;99.90;;;;;;4972425;28;20071;-85
2023/09/02 22:30:22;;;;;;;12.60;5.10;;;19.40;99.90;;;;;;4972139;28;20034;-86
2023/09/02 22:32:48;;;;;;;9.07;4.85;;;19.40;99.90;;;;;;4972865;28;20025;-82
2023/09/02 22:35:13;;;;;;;9.55;4.55;;;19.40;99.90;;;;;;4972857;28;20027;-84
2023/09/02 22:37:39;;;;;;;8.20;5.28;;;19.40;99.90;;;;;;4972195;28;20109;-86
2023/09/02 22:40:06;;;;;;;12.07;5.65;;;19.30;99.90;;;;;;4972227;28;20031;-86
2023/09/02 22:42:31;;;;;;;10.40;4.95;;;19.30;99.90;;;;;;4973199;28;20023;-86
2023/09/02 22:44:57;;;;;;;11.43;5.70;;;19.30;99.90;;;;;;4981892;28;20046;-85
2023/09/02 22:47:22;;;;;;;10.70;5.45;;;19.30;99.90;;;;;;4989415;28;20031;-84
2023/09/02 22:49:52;;;;;;;11.32;5.75;;;19.20;99.90;;;;;;4991261;28;20043;-87
2023/09/02 22:52:19;;;;;;;8.35;5.22;;;19.20;99.90;;;;;;4985432;28;20015;-86
2023/09/02 22:54:44;;;;;;;12.90;6.10;;;19.20;99.90;;;;;;4972836;28;20030;-86
2023/09/02 22:57:10;;;;;;;12.05;5.93;;;19.20;99.90;;;;;;4983329;28;20093;-86
2023/09/02 22:59:35;;;;;;;11.05;5.35;;;19.20;99.90;;;;;;4989358;28;20036;-85
2023/09/02 23:02:01;;;;;;;13.77;6.70;;;19.20;99.90;;;;;;4985125;28;20105;-86
2023/09/02 23:04:27;;;;;;;10.82;5.57;;;19.20;99.90;;;;;;4990353;28;20041;-84
2023/09/02 23:06:52;;;;;;;11.10;6.13;;;19.20;99.90;;;;;;4991195;28;20097;-85
2023/09/02 23:09:19;;;;;;;13.52;6.10;;;19.20;99.90;;;;;;4988734;28;20046;-86
2023/09/02 23:11:46;;;;;;;13.75;6.32;;;19.20;99.90;;;;;;4989455;28;20466;-87
2023/09/02 23:14:11;;;;;;;15.55;6.47;;;19.10;99.90;;;;;;4988831;28;20089;-86
2023/09/02 23:16:37;;;;;;;9.38;5.90;;;19.00;99.90;;;;;;4990021;28;20022;-84
2023/09/02 23:19:03;;;;;;;15.27;6.47;;;19.00;99.90;;;;;;4988852;28;20042;-86
2023/09/02 23:21:28;;;;;;;9.90;5.80;;;18.90;99.90;;;;;;4985491;28;20486;-86
2023/09/02 23:23:54;;;;;;;11.93;6.00;;;19.00;99.90;;;;;;4983587;28;20035;-87
2023/09/02 23:26:21;;;;;;;13.52;5.90;;;19.00;99.90;;;;;;4981311;28;20493;-86
2023/09/02 23:28:49;;;;;;;11.68;6.10;;;19.00;99.90;;;;;;4990463;28;20081;-86
2023/09/02 23:31:14;;;;;;;14.77;6.57;;;19.10;99.90;;;;;;4988916;28;20022;-85
2023/09/02 23:33:40;;;;;;;13.23;5.75;;;19.00;99.90;;;;;;4990647;28;20034;-87
2023/09/02 23:36:06;;;;;;;11.27;6.28;;;19.00;99.90;;;;;;4988393;28;20027;-85
2023/09/02 23:38:32;;;;;;;16.58;6.20;;;19.00;99.90;;;;;;4989646;28;20038;-86
2023/09/02 23:40:57;;;;;;;14.18;6.10;;;19.00;99.90;;;;;;4989529;28;20398;-86
2023/09/02 23:43:23;;;;;;;13.57;6.30;;;19.00;99.90;;;;;;4988462;28;20084;-86
2023/09/02 23:45:51;;;;;;;16.13;6.18;;;19.10;99.90;;;;;;4988222;28;20547;-87
2023/09/02 23:48:17;;;;;;;10.95;6.50;;;19.00;99.90;;;;;;4988524;28;20049;-86
2023/09/02 23:50:48;;;;;;;10.65;5.85;;;18.90;99.90;;;;;;4982060;28;20039;-86
2023/09/02 23:53:14;;;;;;;10.57;5.97;;;18.90;99.90;;;;;;4976317;28;20058;-86
2023/09/02 23:55:43;;;;;;;11.48;6.25;;;18.90;99.90;;;;;;4982993;28;20507;-86
2023/09/02 23:58:09;;;;;;;11.25;6.03;;;18.90;99.90;;;;;;4983238;28;20022;-87
